Time;durP1;ratioP1;P1;durP2;ratioP2;P2;SDS_P1;SDS_P2;PMS_P1;PMS_P2;Temp;Humidity;BMP_temperature;BMP_pressure;BME280_temperature;BME280_humidity;BME280_pressure;Samples;Min_cycle;Max_cycle;Signal;HPM_P1;HPM_P2
2021/12/20 00:02:34;;;;;;;1.17;1.17;;;;;;;0.17;58.15;101892.94;6028050;29;20423;-77
2021/12/20 00:05:39;;;;;;;2.20;1.10;;;;;;;-0.26;60.53;101899.84;6028632;29;20217;-77
2021/12/20 00:08:43;;;;;;;1.10;1.10;;;;;;;-0.24;60.68;101916.72;6028110;29;20240;-77
2021/12/20 00:11:48;;;;;;;1.13;1.00;;;;;;;0.14;59.58;101904.06;6028789;29;20243;-77
2021/12/20 00:14:52;;;;;;;0.97;0.97;;;;;;;-0.33;58.43;101896.00;6028213;29;20202;-77
2021/12/20 00:17:58;;;;;;;1.30;1.30;;;;;;;0.15;58.66;101916.56;6029149;29;20193;-77
2021/12/20 00:21:03;;;;;;;2.93;1.17;;;;;;;-0.14;57.48;101915.81;6027605;29;20499;-77
2021/12/20 00:24:12;;;;;;;1.50;1.40;;;;;;;-0.56;57.79;101897.34;6028152;29;20231;-77
2021/12/20 00:27:19;;;;;;;1.40;1.40;;;;;;;-0.22;57.56;101909.31;6027947;29;20196;-77
2021/12/20 00:30:23;;;;;;;1.30;1.30;;;;;;;-0.13;55.95;101936.44;6027534;29;20486;-77
2021/12/20 00:33:33;;;;;;;2.80;1.20;;;;;;;-0.02;54.16;101925.47;6028435;29;20199;-77
2021/12/20 00:36:38;;;;;;;1.00;1.00;;;;;;;-0.28;54.42;101926.09;6028320;29;20200;-77
2021/12/20 00:43:05;;;;;;;1.10;1.10;;;;;;;-0.12;53.87;101930.06;6027274;29;20306;-77
2021/12/20 00:46:12;;;;;;;1.37;1.37;;;;;;;0.28;52.70;101938.69;6028371;29;20225;-77
2021/12/20 00:49:18;;;;;;;1.10;1.10;;;;;;;0.15;52.58;101946.28;6028444;29;20201;-77
2021/12/20 00:52:22;;;;;;;4.67;1.47;;;;;;;-0.07;53.26;101962.88;6028177;29;20236;-77
2021/12/20 00:55:29;;;;;;;1.50;1.50;;;;;;;-0.21;52.92;101969.56;6026990;29;20196;-77
2021/12/20 00:58:33;;;;;;;1.00;1.00;;;;;;;-0.52;53.12;101966.22;6027950;29;20194;-77
2021/12/20 01:01:39;;;;;;;1.13;1.10;;;;;;;-0.42;53.11;101972.44;6028083;29;20193;-77
2021/12/20 01:04:45;;;;;;;1.20;1.20;;;;;;;-0.45;53.67;101988.91;6027604;29;20227;-77
2021/12/20 01:07:49;;;;;;;1.30;1.30;;;;;;;-0.58;53.02;101999.16;6027204;29;20194;-77
2021/12/20 01:10:55;;;;;;;1.00;1.00;;;;;;;-0.89;52.79;102008.38;6026473;29;20237;-77
2021/12/20 01:14:00;;;;;;;2.23;1.20;;;;;;;-0.91;51.79;101999.56;6026524;29;20361;-77
2021/12/20 01:17:05;;;;;;;1.23;1.23;;;;;;;-0.88;51.09;102018.16;6027672;29;20206;-77
2021/12/20 01:20:14;;;;;;;1.00;1.00;;;;;;;-0.96;51.04;102015.31;6026389;29;20228;-77
2021/12/20 01:23:20;;;;;;;1.20;1.20;;;;;;;-0.85;51.04;102023.28;6026336;29;20267;-77
2021/12/20 01:26:25;;;;;;;1.00;1.00;;;;;;;-0.80;51.72;102026.41;6026527;29;20265;-77
2021/12/20 01:29:30;;;;;;;1.27;1.27;;;;;;;-1.10;52.24;102034.59;6026262;29;20485;-77
2021/12/20 01:32:36;;;;;;;1.23;1.13;;;;;;;-1.30;52.34;102054.38;6027339;29;20200;-77
2021/12/20 01:35:43;;;;;;;1.20;1.20;;;;;;;-0.93;52.12;102037.47;6026964;29;20254;-76
2021/12/20 01:38:47;;;;;;;2.30;1.60;;;;;;;-1.20;52.54;102039.13;6026018;29;20230;-76
2021/12/20 01:41:53;;;;;;;1.57;1.47;;;;;;;-1.02;51.58;102032.91;6025880;29;20192;-76
2021/12/20 01:44:58;;;;;;;1.23;1.23;;;;;;;-0.92;50.62;102054.50;6025739;29;20549;-76
2021/12/20 01:48:06;;;;;;;1.20;1.20;;;;;;;-0.98;51.58;102038.88;6026722;29;20193;-77
2021/12/20 01:51:29;;;;;;;1.20;1.20;;;;;;;-0.84;50.68;102055.50;6026868;29;20193;-76
2021/12/20 01:54:34;;;;;;;1.20;1.20;;;;;;;-0.84;50.84;102052.81;6026827;29;20264;-77
2021/12/20 01:57:38;;;;;;;1.30;1.30;;;;;;;-0.91;51.11;102057.06;6025586;29;20228;-76
2021/12/20 02:01:03;;;;;;;1.20;1.20;;;;;;;-1.00;52.52;102067.84;6026878;29;20202;-76
2021/12/20 02:04:09;;;;;;;1.50;1.50;;;;;;;-0.70;52.87;102054.25;6025387;29;20195;-77
2021/12/20 02:07:33;;;;;;;1.17;1.17;;;;;;;-0.72;51.75;102061.63;6025315;29;20583;-76
2021/12/20 02:10:39;;;;;;;1.60;1.60;;;;;;;-0.87;52.28;102063.03;6025834;29;20249;-76
2021/12/20 02:13:44;;;;;;;1.53;1.50;;;;;;;-0.68;51.22;102068.44;6025116;29;20500;-76
2021/12/20 02:16:48;;;;;;;1.30;1.30;;;;;;;-0.53;50.10;102072.44;6026403;29;20223;-76
2021/12/20 02:19:52;;;;;;;1.37;1.37;;;;;;;-0.74;50.94;102070.88;6025241;29;20226;-76
2021/12/20 02:23:00;;;;;;;2.47;1.27;;;;;;;-0.65;50.42;102084.34;6025933;29;20193;-76
2021/12/20 02:26:05;;;;;;;1.03;1.03;;;;;;;-0.60;49.98;102081.22;6026112;29;20264;-76
2021/12/20 02:29:10;;;;;;;1.30;1.20;;;;;;;-0.32;50.33;102092.03;6025803;29;20192;-76
2021/12/20 02:39:02;;;;;;;2.27;1.20;;;;;;;-0.82;51.33;102093.13;6025607;29;20223;-76
2021/12/20 02:42:11;;;;;;;0.93;0.93;;;;;;;-0.84;50.84;102085.16;6025617;29;20226;-76
2021/12/20 02:45:16;;;;;;;1.07;1.07;;;;;;;-1.26;50.97;102090.88;6025412;29;20200;-76
2021/12/20 02:48:20;;;;;;;1.47;1.40;;;;;;;-1.19;50.84;102100.09;6025124;29;20201;-76
2021/12/20 02:51:27;;;;;;;1.10;1.10;;;;;;;-1.00;50.78;102090.25;6025526;29;20201;-76
2021/12/20 02:54:33;;;;;;;1.13;1.13;;;;;;;-1.15;50.67;102098.88;6024451;29;20208;-76
2021/12/20 02:57:38;;;;;;;1.23;1.23;;;;;;;-1.28;50.48;102100.94;6024457;29;20394;-76
2021/12/20 03:00:43;;;;;;;1.40;1.40;;;;;;;-1.34;50.31;102106.84;6025351;29;20196;-76
2021/12/20 03:03:50;;;;;;;1.33;1.33;;;;;;;-1.14;50.30;102111.34;6024321;29;20260;-76
2021/12/20 03:06:57;;;;;;;1.30;1.20;;;;;;;-0.43;48.99;102105.66;6024606;29;20289;-76
2021/12/20 03:10:04;;;;;;;1.10;1.10;;;;;;;-0.91;49.27;102115.53;6024672;29;20540;-76
2021/12/20 03:13:11;;;;;;;0.90;0.90;;;;;;;-0.75;48.90;102110.47;6024202;29;20259;-76
2021/12/20 03:16:16;;;;;;;1.10;1.10;;;;;;;-1.07;49.62;102121.44;6024430;29;20271;-78
2021/12/20 03:19:20;;;;;;;1.23;1.23;;;;;;;-1.19;48.24;102117.13;6025367;29;20199;-76
2021/12/20 03:22:25;;;;;;;1.03;0.90;;;;;;;-0.85;49.26;102104.19;6024803;29;20277;-76
2021/12/20 03:25:30;;;;;;;1.23;1.00;;;;;;;-1.01;48.37;102111.94;6025250;29;20194;-76
2021/12/20 03:28:35;;;;;;;1.20;1.20;;;;;;;-0.96;48.85;102120.47;6024846;29;20260;-76
2021/12/20 03:31:40;;;;;;;1.10;1.10;;;;;;;-1.20;47.03;102115.41;6026869;29;20199;-76
2021/12/20 03:34:44;;;;;;;1.30;1.30;;;;;;;-1.08;47.16;102110.78;6029333;29;20222;-76
2021/12/20 03:37:49;;;;;;;1.20;1.20;;;;;;;-0.87;47.50;102111.56;6028913;29;20277;-76
2021/12/20 03:40:55;;;;;;;1.00;1.00;;;;;;;-0.97;48.34;102105.31;6028509;29;20498;-76
2021/12/20 03:44:00;;;;;;;1.10;1.10;;;;;;;-1.25;49.00;102122.22;6028518;29;20476;-76
2021/12/20 03:47:05;;;;;;;1.10;1.10;;;;;;;-1.21;49.57;102123.66;6028234;29;20480;-76
2021/12/20 03:50:11;;;;;;;1.20;1.20;;;;;;;-1.34;50.63;102128.41;6029485;29;20202;-76
2021/12/20 03:53:16;;;;;;;1.23;1.23;;;;;;;-0.98;50.96;102135.94;6029484;29;20214;-76
2021/12/20 03:56:22;;;;;;;1.47;1.20;;;;;;;-0.94;51.23;102137.38;6028052;29;20196;-76
2021/12/20 03:59:28;;;;;;;0.90;0.90;;;;;;;-1.07;51.95;102131.34;6029333;29;20199;-76
2021/12/20 04:02:38;;;;;;;1.30;1.30;;;;;;;-1.02;52.08;102151.53;6027976;29;20498;-76
2021/12/20 04:05:43;;;;;;;1.10;1.10;;;;;;;-1.10;51.60;102153.22;6028522;29;20478;-76
2021/12/20 04:08:48;;;;;;;1.27;1.17;;;;;;;-1.25;52.32;102154.56;6029046;29;20235;-76
2021/12/20 04:11:54;;;;;;;1.30;1.30;;;;;;;-1.00;51.11;102154.09;6028866;29;20307;-76
2021/12/20 04:14:58;;;;;;;2.27;1.20;;;;;;;-1.37;51.68;102169.97;6029060;29;20268;-76
2021/12/20 04:18:03;;;;;;;1.40;1.40;;;;;;;-1.36;51.48;102168.97;6027659;29;20260;-76
2021/12/20 04:21:10;;;;;;;1.20;1.20;;;;;;;-0.86;49.84;102173.47;6028952;29;20192;-76
2021/12/20 04:24:14;;;;;;;3.90;1.43;;;;;;;-1.41;51.33;102164.97;6027572;29;20495;-76
2021/12/20 04:27:20;;;;;;;1.30;1.30;;;;;;;-1.35;51.28;102153.66;6027508;29;20285;-76
2021/12/20 04:30:28;;;;;;;1.33;1.33;;;;;;;-1.05;50.13;102153.66;6028347;29;20201;-76
2021/12/20 04:33:32;;;;;;;1.30;1.30;;;;;;;-0.96;50.18;102150.13;6027442;29;20482;-76
2021/12/20 04:36:39;;;;;;;1.50;1.40;;;;;;;-1.38;50.65;102159.31;6028283;29;20212;-76
2021/12/20 04:39:43;;;;;;;1.27;1.27;;;;;;;-1.04;49.63;102153.53;6027293;29;20382;-76
2021/12/20 04:42:51;;;;;;;1.07;1.07;;;;;;;-1.29;51.54;102155.81;6026022;29;20218;-76
2021/12/20 04:45:55;;;;;;;1.97;1.27;;;;;;;-0.93;49.79;102157.97;6028142;29;20199;-76
2021/12/20 04:49:00;;;;;;;1.43;1.43;;;;;;;-1.19;49.77;102157.56;6028202;29;20223;-76
2021/12/20 04:52:05;;;;;;;3.00;1.60;;;;;;;-0.91;50.17;102158.66;6026954;29;20391;-76
2021/12/20 04:55:12;;;;;;;1.10;1.10;;;;;;;-1.34;51.22;102171.53;6026894;29;20196;-76
2021/12/20 04:58:20;;;;;;;1.20;1.20;;;;;;;-1.19;50.82;102180.97;6027185;29;20195;-76
2021/12/20 05:01:24;;;;;;;1.43;1.43;;;;;;;-1.59;51.78;102192.50;6027697;29;20195;-76
2021/12/20 05:04:29;;;;;;;1.70;1.70;;;;;;;-1.26;50.34;102185.19;6026747;29;20334;-76
2021/12/20 05:07:33;;;;;;;1.20;1.20;;;;;;;-1.36;50.58;102182.47;6027651;29;20219;-76
2021/12/20 05:10:40;;;;;;;1.10;1.10;;;;;;;-1.28;50.23;102188.03;6027147;29;20240;-76
2021/12/20 05:13:46;;;;;;;3.10;1.40;;;;;;;-1.49;50.73;102184.50;6027852;29;20195;-77
2021/12/20 05:16:50;;;;;;;1.10;1.10;;;;;;;-1.08;49.92;102187.16;6027856;29;20192;-76
2021/12/20 05:19:54;;;;;;;1.13;1.13;;;;;;;-0.92;49.31;102183.94;6027464;29;20192;-76
2021/12/20 05:22:59;;;;;;;1.40;1.40;;;;;;;-1.29;49.59;102193.53;6027163;29;20192;-76
2021/12/20 05:26:03;;;;;;;1.30;1.20;;;;;;;-1.25;49.62;102192.31;6026168;29;20465;-76
2021/12/20 05:29:09;;;;;;;4.00;1.30;;;;;;;-1.15;49.72;102198.59;6026128;29;20240;-76
2021/12/20 05:32:13;;;;;;;1.50;1.27;;;;;;;-0.64;49.14;102188.59;6025961;29;20444;-76
2021/12/20 05:35:19;;;;;;;1.30;1.20;;;;;;;-1.04;50.01;102209.28;6027220;29;20232;-77
2021/12/20 05:38:23;;;;;;;1.07;1.07;;;;;;;-0.86;49.72;102205.81;6027100;29;20212;-77
2021/12/20 05:41:27;;;;;;;1.20;1.20;;;;;;;-1.28;49.98;102219.53;6025815;29;20206;-76
2021/12/20 05:44:33;;;;;;;1.37;1.27;;;;;;;-0.89;49.04;102221.41;6026741;29;20200;-77
2021/12/20 05:47:38;;;;;;;3.00;1.30;;;;;;;-0.85;49.50;102217.47;6025649;29;20289;-76
2021/12/20 05:50:43;;;;;;;4.43;2.43;;;;;;;-1.23;51.04;102222.66;6026642;29;20202;-76
2021/12/20 05:53:47;;;;;;;1.37;1.37;;;;;;;-0.85;49.54;102222.84;6026439;29;20192;-77
2021/12/20 05:56:51;;;;;;;16.73;11.57;;;;;;;-1.17;49.69;102244.53;6026865;29;20203;-76
2021/12/20 05:59:57;;;;;;;1.20;1.10;;;;;;;-0.83;49.71;102243.31;6026448;29;20196;-77
2021/12/20 06:03:01;;;;;;;1.80;1.40;;;;;;;-1.33;50.41;102248.72;6026501;29;20200;-76
2021/12/20 06:06:08;;;;;;;1.70;1.07;;;;;;;-1.22;51.21;102252.16;6025245;29;20500;-76
2021/12/20 06:09:12;;;;;;;1.20;1.20;;;;;;;-0.96;52.33;102263.38;6025545;29;20494;-76
2021/12/20 06:12:17;;;;;;;2.73;1.30;;;;;;;-1.00;51.61;102273.59;6025354;29;20267;-77
2021/12/20 06:15:22;;;;;;;2.93;1.20;;;;;;;-1.69;52.76;102267.00;6026545;29;20202;-77
2021/12/20 06:18:26;;;;;;;2.10;1.30;;;;;;;-1.25;52.38;102283.94;6025176;29;20387;-76
2021/12/20 06:21:31;;;;;;;2.87;1.20;;;;;;;-1.15;52.98;102290.25;6026082;29;20373;-76
2021/12/20 06:24:35;;;;;;;1.37;1.30;;;;;;;-0.84;52.81;102289.28;6025349;29;20192;-76
2021/12/20 06:27:40;;;;;;;1.00;1.00;;;;;;;-1.41;53.58;102299.69;6025025;29;20252;-77
2021/12/20 06:30:47;;;;;;;1.10;1.00;;;;;;;-1.55;53.46;102298.16;6025797;29;20224;-76
2021/12/20 06:33:51;;;;;;;1.00;1.00;;;;;;;-1.19;52.93;102294.19;6025756;29;20265;-76
2021/12/20 06:36:56;;;;;;;2.63;1.03;;;;;;;-1.00;52.68;102297.00;6024856;29;20202;-76
2021/12/20 06:40:01;;;;;;;0.90;0.90;;;;;;;-1.08;53.30;102294.13;6024807;29;20482;-76
2021/12/20 06:43:06;;;;;;;1.40;1.13;;;;;;;-1.10;53.13;102301.50;6024816;29;20475;-76
2021/12/20 06:46:16;;;;;;;2.23;1.10;;;;;;;-0.99;53.02;102298.69;6024596;29;20202;-76
2021/12/20 06:49:21;;;;;;;1.30;1.20;;;;;;;-0.93;53.41;102295.50;6026660;29;20335;-77
2021/12/20 06:52:26;;;;;;;1.20;1.20;;;;;;;-1.10;54.16;102293.41;6025154;29;20391;-77
2021/12/20 06:55:30;;;;;;;2.40;1.40;;;;;;;-1.68;55.51;102319.88;6025024;29;20468;-77
2021/12/20 06:58:34;;;;;;;1.47;1.40;;;;;;;-1.29;55.32;102317.53;6025739;29;20199;-77
2021/12/20 07:01:41;;;;;;;1.23;1.23;;;;;;;-1.32;55.46;102310.53;6024120;29;20192;-76
2021/12/20 07:04:46;;;;;;;1.17;1.17;;;;;;;-1.60;55.83;102317.41;6024820;29;20199;-76
2021/12/20 07:07:50;;;;;;;1.10;1.10;;;;;;;-1.56;56.43;102316.16;6025248;29;20233;-75
2021/12/20 07:10:55;;;;;;;1.10;1.10;;;;;;;-1.49;56.87;102320.06;6025099;29;20239;-75
2021/12/20 07:13:59;;;;;;;1.43;1.43;;;;;;;-1.58;56.85;102328.91;6025154;29;20193;-76
2021/12/20 07:17:05;;;;;;;1.30;1.20;;;;;;;-1.47;57.71;102323.50;6025103;29;20202;-75
2021/12/20 07:20:11;;;;;;;3.27;1.40;;;;;;;-1.60;58.05;102336.28;6025051;29;20285;-76
2021/12/20 07:23:16;;;;;;;1.00;1.00;;;;;;;-1.53;57.80;102333.91;6024475;29;20195;-76
2021/12/20 07:26:21;;;;;;;1.40;1.40;;;;;;;-1.92;58.93;102350.69;6024997;29;20194;-76
2021/12/20 07:29:25;;;;;;;1.43;1.20;;;;;;;-1.67;58.78;102337.78;6025289;29;20218;-77
2021/12/20 07:32:31;;;;;;;1.20;1.20;;;;;;;-1.33;58.46;102340.34;6025395;29;20255;-76
2021/12/20 07:35:35;;;;;;;1.10;1.10;;;;;;;-1.77;59.41;102358.38;6023941;29;20193;-76
2021/12/20 07:38:40;;;;;;;0.90;0.90;;;;;;;-1.98;61.31;102354.75;6024775;29;20196;-76
2021/12/20 07:41:45;;;;;;;1.50;1.40;;;;;;;-2.01;60.72;102360.38;6025146;29;20233;-76
2021/12/20 07:44:56;;;;;;;1.27;1.27;;;;;;;-1.71;60.27;102357.84;6008653;29;20209;-76
2021/12/20 07:48:22;;;;;;;1.20;1.10;;;;;;;-1.75;59.28;102372.56;6024474;29;20211;-76
2021/12/20 07:51:26;;;;;;;1.10;1.10;;;;;;;-1.82;60.05;102374.06;6023672;29;20573;-76
2021/12/20 07:54:31;;;;;;;1.00;1.00;;;;;;;-1.53;59.72;102375.19;6023581;29;20486;-76
2021/12/20 07:57:37;;;;;;;1.40;1.40;;;;;;;-1.85;59.29;102376.13;6024715;29;20198;-76
2021/12/20 08:00:42;;;;;;;1.30;1.20;;;;;;;-1.71;58.75;102384.78;6024876;29;20206;-76
2021/12/20 08:03:48;;;;;;;1.13;1.13;;;;;;;-1.66;58.94;102393.34;6023519;29;20469;-76
2021/12/20 08:06:52;;;;;;;1.20;1.20;;;;;;;-1.81;59.00;102409.88;6023949;29;20193;-76
2021/12/20 08:09:56;;;;;;;1.50;1.40;;;;;;;-1.88;59.71;102404.16;6024030;29;20259;-76
2021/12/20 08:13:01;;;;;;;2.77;1.33;;;;;;;-1.47;58.36;102409.72;6023546;29;20480;-75
2021/12/20 08:16:07;;;;;;;1.20;1.20;;;;;;;-1.75;58.86;102404.88;6024962;29;20200;-75
2021/12/20 08:19:13;;;;;;;1.37;1.37;;;;;;;-1.45;57.24;102401.50;6028980;29;20200;-76
2021/12/20 08:22:17;;;;;;;1.90;1.10;;;;;;;-1.29;57.58;102401.06;6028078;29;20267;-76
2021/12/20 08:25:22;;;;;;;1.17;1.17;;;;;;;-1.74;57.68;102406.56;6027780;29;20262;-75
2021/12/20 08:28:27;;;;;;;4.93;1.27;;;;;;;-1.20;55.97;102408.41;6028462;29;20195;-75
2021/12/20 08:31:31;;;;;;;1.90;1.30;;;;;;;-1.71;56.61;102411.72;6028550;29;20229;-76
2021/12/20 08:34:37;;;;;;;1.20;1.20;;;;;;;-1.31;56.04;102414.69;6027281;29;20214;-76
2021/12/20 08:37:42;;;;;;;1.07;1.07;;;;;;;-1.48;56.68;102418.75;6028304;29;20192;-76
2021/12/20 08:40:49;;;;;;;1.10;1.10;;;;;;;-1.39;55.26;102427.06;6027499;29;20196;-76
2021/12/20 08:43:53;;;;;;;0.90;0.90;;;;;;;-2.28;54.23;102424.50;6028246;29;20274;-75
2021/12/20 08:46:58;;;;;;;1.77;1.17;;;;;;;-1.70;53.98;102429.59;6028724;29;20241;-75
2021/12/20 08:50:09;;;;;;;1.00;1.00;;;;;;;-1.75;53.71;102437.19;6026929;29;20215;-75
2021/12/20 08:53:17;;;;;;;1.00;1.00;;;;;;;-2.04;52.74;102444.06;6026992;29;20426;-76
2021/12/20 08:56:22;;;;;;;1.60;1.00;;;;;;;-2.04;52.23;102444.06;6026858;29;20424;-76
2021/12/20 08:59:26;;;;;;;8.30;1.10;;;;;;;-2.29;51.01;102447.84;6026852;29;20546;-76
2021/12/20 09:02:30;;;;;;;2.10;1.27;;;;;;;-1.83;49.60;102455.81;6028000;29;20223;-76
2021/12/20 09:05:37;;;;;;;1.00;1.00;;;;;;;-1.80;49.00;102455.56;6026603;29;20509;-76
2021/12/20 09:08:42;;;;;;;1.50;1.30;;;;;;;-1.91;49.30;102447.50;6026958;29;20215;-76
2021/12/20 09:11:46;;;;;;;1.10;1.10;;;;;;;-2.19;48.50;102459.59;6026647;29;20258;-76
2021/12/20 09:14:51;;;;;;;1.50;1.00;;;;;;;-1.95;47.49;102462.19;6027843;29;20262;-76
2021/12/20 09:17:55;;;;;;;1.10;1.10;;;;;;;-1.86;47.36;102466.81;6027799;29;20194;-76
2021/12/20 09:21:02;;;;;;;1.40;1.23;;;;;;;-1.79;47.47;102468.03;6026409;29;20198;-76
2021/12/20 09:24:09;;;;;;;1.10;1.10;;;;;;;-2.42;47.34;102475.84;6026325;29;20422;-76
2021/12/20 09:27:14;;;;;;;4.40;1.27;;;;;;;-2.05;47.89;102487.28;6026192;29;20191;-76
2021/12/20 09:30:19;;;;;;;1.10;1.10;;;;;;;-1.81;46.49;102486.16;6026504;29;20250;-76
2021/12/20 09:33:24;;;;;;;2.50;1.10;;;;;;;-1.97;47.37;102477.59;6027275;29;20302;-76
2021/12/20 09:36:30;;;;;;;1.23;1.23;;;;;;;-2.06;45.77;102486.41;6026973;29;20227;-76
2021/12/20 09:39:37;;;;;;;0.90;0.90;;;;;;;-2.14;45.92;102494.22;6025902;29;20194;-76
2021/12/20 09:42:49;;;;;;;0.90;0.90;;;;;;;-2.08;46.30;102499.13;6026736;29;20262;-76
2021/12/20 09:45:55;;;;;;;1.20;1.20;;;;;;;-1.86;45.57;102504.53;6025822;29;20549;-76
2021/12/20 09:49:00;;;;;;;1.07;1.07;;;;;;;-2.14;45.62;102527.38;6027008;29;20201;-75
2021/12/20 09:52:07;;;;;;;0.90;0.90;;;;;;;-2.22;45.31;102512.81;6026624;29;20223;-75
2021/12/20 09:55:14;;;;;;;1.20;1.20;;;;;;;-1.80;45.94;102520.19;6026856;29;20195;-75
2021/12/20 09:58:22;;;;;;;1.17;1.17;;;;;;;-1.99;45.22;102519.94;6026812;29;20236;-75
2021/12/20 10:01:28;;;;;;;1.00;1.00;;;;;;;-2.27;44.71;102526.63;6026317;29;20245;-75
2021/12/20 10:04:33;;;;;;;1.00;1.00;;;;;;;-2.09;44.94;102524.31;6025434;29;20368;-76
2021/12/20 10:07:39;;;;;;;0.90;0.90;;;;;;;-2.18;44.13;102511.59;6026755;29;20199;-76
2021/12/20 10:10:46;;;;;;;1.00;1.00;;;;;;;-2.05;44.66;102520.44;6025675;29;20243;-75
2021/12/20 10:14:01;;;;;;;1.00;1.00;;;;;;;-1.83;44.08;102515.06;6025274;29;20270;-75
2021/12/20 10:17:08;;;;;;;1.13;1.13;;;;;;;-1.76;44.73;102515.41;6026292;29;20195;-75
2021/12/20 10:20:15;;;;;;;0.87;0.87;;;;;;;-2.28;43.83;102524.06;6026432;29;20219;-76
2021/12/20 10:23:23;;;;;;;3.23;1.30;;;;;;;-1.97;44.77;102517.13;6025825;29;20195;-75
2021/12/20 10:26:28;;;;;;;1.00;1.00;;;;;;;-1.90;44.18;102513.84;6026124;29;20201;-75
2021/12/20 10:29:37;;;;;;;2.70;1.40;;;;;;;-1.78;44.41;102510.16;6025953;29;20237;-75
2021/12/20 10:32:45;;;;;;;1.13;1.13;;;;;;;-1.95;44.21;102516.03;6025167;29;20245;-76
2021/12/20 10:35:52;;;;;;;1.30;1.30;;;;;;;-1.97;44.25;102523.34;6025472;29;20192;-76
2021/12/20 10:38:59;;;;;;;1.20;1.20;;;;;;;-1.68;44.05;102523.75;6026169;29;20199;-76
2021/12/20 10:42:15;;;;;;;1.70;1.10;;;;;;;-1.85;43.83;102533.19;6024777;29;20206;-75
2021/12/20 10:45:21;;;;;;;1.20;1.20;;;;;;;-1.53;44.00;102528.75;6024969;29;20195;-76
2021/12/20 10:48:32;;;;;;;1.00;1.00;;;;;;;-2.14;44.35;102542.66;6025999;29;20194;-76
2021/12/20 10:51:39;;;;;;;7.43;1.10;;;;;;;-2.20;44.35;102537.75;6024522;29;20408;-76
2021/12/20 10:54:45;;;;;;;1.10;1.10;;;;;;;-1.78;43.98;102536.22;6025740;29;20236;-75
2021/12/20 10:57:49;;;;;;;0.70;0.70;;;;;;;-2.04;43.86;102535.59;6024239;29;20229;-75
2021/12/20 11:01:13;;;;;;;1.10;1.10;;;;;;;-1.81;43.74;102540.03;6024278;29;20219;-76
2021/12/20 11:04:20;;;;;;;1.50;0.90;;;;;;;-1.99;44.71;102546.84;6024870;29;20393;-77
2021/12/20 11:10:45;;;;;;;0.90;0.90;;;;;;;-2.03;44.21;102540.00;5994532;29;20246;-76
2021/12/20 11:13:50;;;;;;;1.20;1.13;;;;;;;-1.84;44.69;102532.19;6025310;29;20263;-76
2021/12/20 11:16:57;;;;;;;1.00;1.00;;;;;;;-1.97;43.83;102539.50;6024706;29;20195;-76
2021/12/20 11:20:01;;;;;;;4.47;1.50;;;;;;;-1.78;43.48;102552.38;6026217;29;20194;-76
2021/12/20 11:23:06;;;;;;;2.73;1.20;;;;;;;-1.87;44.40;102553.13;6025059;29;20199;-76
2021/12/20 11:26:13;;;;;;;1.80;1.03;;;;;;;-1.99;44.45;102563.00;6024924;29;20230;-76
2021/12/20 11:29:17;;;;;;;1.40;1.33;;;;;;;-2.10;44.74;102576.44;6023999;29;20478;-76
2021/12/20 11:32:24;;;;;;;1.20;1.20;;;;;;;-1.70;44.21;102558.88;6023719;29;20475;-76
2021/12/20 11:35:30;;;;;;;1.37;1.27;;;;;;;-1.74;44.70;102557.41;6024808;29;20235;-76
2021/12/20 11:38:35;;;;;;;1.17;1.10;;;;;;;-1.53;44.40;102560.22;6023782;29;20203;-77
2021/12/20 11:41:41;;;;;;;1.50;1.40;;;;;;;-1.32;43.93;102558.50;6023997;29;20566;-76
2021/12/20 11:44:48;;;;;;;1.40;1.40;;;;;;;-1.53;43.97;102565.59;6023798;29;20486;-76
2021/12/20 11:47:59;;;;;;;2.13;1.23;;;;;;;-1.71;44.02;102567.06;6023701;29;20202;-76
2021/12/20 11:51:04;;;;;;;2.50;1.10;;;;;;;-1.68;43.93;102565.00;6023610;29;20475;-76
2021/12/20 11:54:52;;;;;;;1.30;1.20;;;;;;;-1.83;44.57;102566.22;6028150;29;20195;-75
2021/12/20 11:57:59;;;;;;;3.10;1.20;;;;;;;-1.38;43.47;102566.25;6025950;29;20212;-76
2021/12/20 12:01:05;;;;;;;1.43;1.43;;;;;;;-1.63;44.01;102565.50;6029122;29;20206;-76
2021/12/20 12:04:11;;;;;;;1.27;1.27;;;;;;;-1.13;44.00;102564.13;6027978;29;20195;-75
2021/12/20 12:07:22;;;;;;;1.33;1.33;;;;;;;-1.44;43.70;102570.28;6028846;29;20195;-76
2021/12/20 12:10:29;;;;;;;2.67;1.10;;;;;;;-1.61;43.75;102559.97;6028814;29;20236;-77
2021/12/20 12:14:19;;;;;;;2.10;1.60;;;;;;;-1.00;42.92;102559.44;6027824;29;20417;-77
2021/12/20 12:17:53;;;;;;;2.70;1.30;;;;;;;-1.02;43.24;102571.31;6027994;29;20255;-77
2021/12/20 12:20:57;;;;;;;1.40;1.40;;;;;;;-1.13;43.88;102574.03;6028959;29;20195;-75
2021/12/20 12:24:04;;;;;;;2.07;1.67;;;;;;;-0.91;43.32;102573.97;6028340;29;20197;-76
2021/12/20 12:27:21;;;;;;;1.10;1.00;;;;;;;-1.00;44.37;102580.16;6027780;29;20202;-76
2021/12/20 12:30:40;;;;;;;3.70;1.33;;;;;;;-1.03;43.85;102575.00;6028633;29;20220;-76
2021/12/20 12:33:45;;;;;;;1.67;1.57;;;;;;;-0.77;43.60;102576.41;6028472;29;20250;-76
2021/12/20 12:36:49;;;;;;;1.10;1.10;;;;;;;-1.21;44.44;102571.09;6028394;29;20223;-76
2021/12/20 12:40:22;;;;;;;2.43;1.47;;;;;;;-0.83;44.49;102576.91;6028571;29;20224;-76
2021/12/20 12:43:47;;;;;;;1.30;1.30;;;;;;;-0.88;44.70;102584.53;6028159;29;20198;-76
2021/12/20 12:47:00;;;;;;;1.03;1.03;;;;;;;-0.64;45.74;102582.50;6027214;29;20351;-76
2021/12/20 12:50:25;;;;;;;1.10;1.10;;;;;;;-1.12;45.75;102591.91;6027317;29;20216;-76
2021/12/20 12:53:40;;;;;;;1.13;1.13;;;;;;;-1.21;46.64;102581.88;6028055;29;20286;-76
2021/12/20 12:56:45;;;;;;;1.40;1.40;;;;;;;-1.22;47.55;102582.84;6028041;29;20281;-76
2021/12/20 13:00:04;;;;;;;1.40;1.30;;;;;;;-1.28;47.39;102596.84;6028130;29;20195;-77
2021/12/20 13:03:16;;;;;;;2.70;1.50;;;;;;;-1.05;47.35;102595.84;6025965;29;20219;-76
2021/12/20 13:06:22;;;;;;;1.40;1.40;;;;;;;-1.17;47.73;102604.91;6028080;29;20192;-76
2021/12/20 13:09:32;;;;;;;1.40;1.40;;;;;;;-1.46;49.33;102605.41;6026675;29;20518;-76
2021/12/20 13:12:42;;;;;;;1.27;1.27;;;;;;;-1.46;50.12;102621.56;6027543;29;20248;-76
2021/12/20 13:15:52;;;;;;;1.10;1.10;;;;;;;-1.14;49.81;102613.63;6027757;29;20192;-76
2021/12/20 13:18:58;;;;;;;1.20;1.20;;;;;;;-1.61;51.36;102616.53;6027707;29;20205;-76
2021/12/20 13:22:05;;;;;;;1.40;1.30;;;;;;;-1.36;50.77;102610.09;6026978;29;20203;-77
2021/12/20 13:25:10;;;;;;;4.80;1.40;;;;;;;-1.40;50.79;102609.47;6027406;29;20267;-76
2021/12/20 13:28:18;;;;;;;1.20;1.20;;;;;;;-1.49;50.18;102611.06;6027182;29;20202;-76
2021/12/20 13:31:25;;;;;;;1.27;1.27;;;;;;;-1.48;50.67;102612.75;6027431;29;20192;-76
2021/12/20 13:34:30;;;;;;;1.10;1.10;;;;;;;-1.32;49.97;102619.63;6026057;29;20407;-76
2021/12/20 13:37:39;;;;;;;1.30;1.30;;;;;;;-1.25;50.71;102623.56;6026954;29;20227;-76
2021/12/20 13:40:50;;;;;;;1.33;1.33;;;;;;;-1.61;51.00;102627.31;6025961;29;20385;-77
2021/12/20 13:43:59;;;;;;;1.80;1.13;;;;;;;-2.08;52.58;102631.03;6026842;29;20197;-76
2021/12/20 13:47:16;;;;;;;1.30;1.30;;;;;;;-1.79;52.33;102635.00;6025723;29;20380;-76
2021/12/20 13:50:21;;;;;;;1.30;1.30;;;;;;;-1.71;51.54;102627.19;6026647;29;20195;-77
2021/12/20 13:53:31;;;;;;;1.90;1.10;;;;;;;-2.14;51.51;102645.81;6026480;29;20297;-77
2021/12/20 13:56:35;;;;;;;1.20;1.20;;;;;;;-2.16;51.68;102636.16;6026413;29;20195;-77
2021/12/20 13:59:49;;;;;;;1.10;1.10;;;;;;;-2.04;51.85;102629.81;6025746;29;20195;-76
2021/12/20 14:02:53;;;;;;;1.30;1.30;;;;;;;-1.81;51.23;102631.59;6025583;29;20199;-77
2021/12/20 14:05:58;;;;;;;1.20;1.20;;;;;;;-1.76;51.76;102629.38;6025800;29;20192;-76
2021/12/20 14:09:20;;;;;;;1.40;1.40;;;;;;;-2.06;53.13;102634.47;6026531;29;20214;-77
2021/12/20 14:12:32;;;;;;;1.20;1.20;;;;;;;-2.06;53.91;102642.53;6026008;29;20439;-77
2021/12/20 14:15:39;;;;;;;1.50;1.50;;;;;;;-2.00;53.94;102636.69;6025378;29;20206;-76
2021/12/20 14:18:47;;;;;;;1.53;1.53;;;;;;;-2.17;54.50;102650.56;6026315;29;20195;-77
2021/12/20 14:22:00;;;;;;;1.70;1.70;;;;;;;-2.03;54.47;102642.31;6024914;29;20244;-76
2021/12/20 14:25:08;;;;;;;3.50;2.17;;;;;;;-1.87;54.22;102637.44;6025238;29;20234;-76
2021/12/20 14:28:17;;;;;;;3.40;1.67;;;;;;;-2.07;55.63;102653.44;6026235;29;20262;-76
2021/12/20 14:31:27;;;;;;;1.40;1.40;;;;;;;-2.11;55.77;102655.50;6025155;29;20194;-77
2021/12/20 14:34:34;;;;;;;2.20;1.63;;;;;;;-2.07;55.52;102642.66;6024771;29;20587;-77
2021/12/20 14:37:39;;;;;;;1.20;1.20;;;;;;;-2.02;55.82;102649.38;6025997;29;20191;-76
2021/12/20 14:40:50;;;;;;;1.60;1.60;;;;;;;-1.91;56.30;102644.06;6025931;29;20195;-77
2021/12/20 14:43:56;;;;;;;2.27;1.63;;;;;;;-1.93;56.01;102643.31;6025848;29;20198;-76